sensor_id;sensor_type;location;lat;lon;timestamp;pressure;altitude;pressure_sealevel;temperature;humidity
706;BME280;21234;48.690;9.016;2022-09-21T00:00:20;96880.06;;;6.41;96.62
706;BME280;21234;48.690;9.016;2022-09-21T00:02:47;96878.00;;;6.36;96.56
706;BME280;21234;48.690;9.016;2022-09-21T00:05:14;96876.09;;;6.50;96.22
706;BME280;21234;48.690;9.016;2022-09-21T00:07:42;96876.53;;;6.47;96.50
706;BME280;21234;48.690;9.016;2022-09-21T00:10:13;96885.91;;;6.45;96.14
706;BME280;21234;48.690;9.016;2022-09-21T00:12:41;96880.69;;;6.43;96.22
706;BME280;21234;48.690;9.016;2022-09-21T00:15:09;96885.03;;;6.51;96.79
706;BME280;21234;48.690;9.016;2022-09-21T00:17:36;96880.66;;;6.56;96.41
706;BME280;21234;48.690;9.016;2022-09-21T00:20:04;96879.03;;;6.49;97.68
706;BME280;21234;48.690;9.016;2022-09-21T00:22:31;96875.69;;;6.53;97.75
706;BME280;21234;48.690;9.016;2022-09-21T00:24:59;96883.38;;;6.56;96.29
706;BME280;21234;48.690;9.016;2022-09-21T00:27:27;96883.38;;;6.56;96.84
706;BME280;21234;48.690;9.016;2022-09-21T00:29:55;96886.91;;;6.57;97.45
706;BME280;21234;48.690;9.016;2022-09-21T00:32:22;96884.81;;;6.52;97.83
706;BME280;21234;48.690;9.016;2022-09-21T00:34:49;96879.63;;;6.51;97.69
706;BME280;21234;48.690;9.016;2022-09-21T00:37:16;96879.41;;;6.52;97.12
706;BME280;21234;48.690;9.016;2022-09-21T00:39:42;96876.91;;;6.57;96.84
706;BME280;21234;48.690;9.016;2022-09-21T00:42:13;96887.34;;;6.34;98.22
706;BME280;21234;48.690;9.016;2022-09-21T00:44:42;96882.56;;;6.23;97.97
706;BME280;21234;48.690;9.016;2022-09-21T00:47:11;96882.59;;;6.16;98.36
706;BME280;21234;48.690;9.016;2022-09-21T00:49:40;96884.00;;;6.19;97.90
706;BME280;21234;48.690;9.016;2022-09-21T00:52:09;96899.78;;;6.22;98.22
706;BME280;21234;48.690;9.016;2022-09-21T00:54:41;96893.16;;;6.18;98.84
706;BME280;21234;48.690;9.016;2022-09-21T00:57:12;96885.03;;;6.18;98.27
706;BME280;21234;48.690;9.016;2022-09-21T00:59:41;96887.16;;;6.09;98.29
706;BME280;21234;48.690;9.016;2022-09-21T01:02:09;96885.47;;;6.01;97.96
706;BME280;21234;48.690;9.016;2022-09-21T01:04:37;96884.22;;;6.04;97.99
706;BME280;21234;48.690;9.016;2022-09-21T01:07:07;96886.94;;;6.11;96.79
706;BME280;21234;48.690;9.016;2022-09-21T01:09:37;96883.81;;;6.14;98.06
706;BME280;21234;48.690;9.016;2022-09-21T01:12:15;96885.47;;;5.95;98.63
706;BME280;21234;48.690;9.016;2022-09-21T01:15:06;96889.41;;;5.99;98.29
706;BME280;21234;48.690;9.016;2022-09-21T01:17:41;96881.53;;;5.97;97.07
706;BME280;21234;48.690;9.016;2022-09-21T01:20:33;96888.31;;;5.87;97.39
706;BME280;21234;48.690;9.016;2022-09-21T01:23:20;96883.16;;;5.92;97.14
706;BME280;21234;48.690;9.016;2022-09-21T01:26:03;96877.13;;;5.83;97.14
706;BME280;21234;48.690;9.016;2022-09-21T01:28:57;96878.59;;;5.92;97.29
706;BME280;21234;48.690;9.016;2022-09-21T01:31:31;96875.66;;;5.81;96.37
706;BME280;21234;48.690;9.016;2022-09-21T01:34:04;96872.13;;;5.87;96.40
706;BME280;21234;48.690;9.016;2022-09-21T01:36:33;96884.59;;;5.81;97.22
706;BME280;21234;48.690;9.016;2022-09-21T01:39:04;96884.59;;;5.81;96.75
706;BME280;21234;48.690;9.016;2022-09-21T01:41:33;96890.38;;;5.71;97.31
706;BME280;21234;48.690;9.016;2022-09-21T01:44:06;96888.97;;;5.82;96.12
706;BME280;21234;48.690;9.016;2022-09-21T01:46:35;96895.78;;;5.71;97.08
706;BME280;21234;48.690;9.016;2022-09-21T01:49:09;96887.06;;;5.76;97.33
706;BME280;21234;48.690;9.016;2022-09-21T01:51:40;96884.75;;;5.66;97.27
706;BME280;21234;48.690;9.016;2022-09-21T01:54:11;96893.03;;;5.52;97.61
706;BME280;21234;48.690;9.016;2022-09-21T01:56:42;96896.34;;;5.54;98.29
706;BME280;21234;48.690;9.016;2022-09-21T01:59:17;96892.81;;;5.47;97.30
706;BME280;21234;48.690;9.016;2022-09-21T02:01:50;96903.44;;;5.68;97.61
706;BME280;21234;48.690;9.016;2022-09-21T02:04:18;96890.34;;;5.58;96.78
706;BME280;21234;48.690;9.016;2022-09-21T02:06:47;96889.53;;;5.64;95.95
706;BME280;21234;48.690;9.016;2022-09-21T02:09:16;96897.59;;;5.58;96.13
706;BME280;21234;48.690;9.016;2022-09-21T02:11:43;96894.47;;;5.41;98.02
706;BME280;21234;48.690;9.016;2022-09-21T02:14:15;96892.41;;;5.50;97.10
706;BME280;21234;48.690;9.016;2022-09-21T02:16:47;96890.53;;;5.44;97.49
706;BME280;21234;48.690;9.016;2022-09-21T02:19:30;96882.03;;;5.47;97.08
706;BME280;21234;48.690;9.016;2022-09-21T02:22:04;96882.81;;;5.34;97.51
706;BME280;21234;48.690;9.016;2022-09-21T02:24:37;96886.97;;;5.36;96.99
706;BME280;21234;48.690;9.016;2022-09-21T02:27:11;96882.63;;;5.42;96.54
706;BME280;21234;48.690;9.016;2022-09-21T02:29:46;96877.41;;;5.34;96.60
706;BME280;21234;48.690;9.016;2022-09-21T02:32:22;96880.72;;;5.29;96.64
706;BME280;21234;48.690;9.016;2022-09-21T02:34:54;96878.81;;;5.23;97.43
706;BME280;21234;48.690;9.016;2022-09-21T02:37:29;96879.47;;;5.25;97.41
706;BME280;21234;48.690;9.016;2022-09-21T02:40:02;96875.75;;;5.33;96.37
706;BME280;21234;48.690;9.016;2022-09-21T02:42:34;96878.44;;;5.33;95.91
706;BME280;21234;48.690;9.016;2022-09-21T02:45:08;96877.38;;;5.21;96.86
706;BME280;21234;48.690;9.016;2022-09-21T02:47:42;96879.22;;;5.14;96.54
706;BME280;21234;48.690;9.016;2022-09-21T02:50:15;96877.13;;;5.09;97.78
706;BME280;21234;48.690;9.016;2022-09-21T02:52:45;96876.75;;;5.19;97.01
706;BME280;21234;48.690;9.016;2022-09-21T02:55:13;96878.44;;;5.20;97.44
706;BME280;21234;48.690;9.016;2022-09-21T02:57:43;96875.06;;;5.11;97.41
706;BME280;21234;48.690;9.016;2022-09-21T03:00:14;96875.69;;;5.13;98.00
706;BME280;21234;48.690;9.016;2022-09-21T03:02:43;96869.50;;;5.19;97.10
706;BME280;21234;48.690;9.016;2022-09-21T03:05:12;96874.03;;;5.12;97.01
706;BME280;21234;48.690;9.016;2022-09-21T03:07:39;96872.81;;;5.21;97.38
706;BME280;21234;48.690;9.016;2022-09-21T03:10:06;96867.84;;;5.18;97.07
706;BME280;21234;48.690;9.016;2022-09-21T03:12:33;96869.28;;;5.14;97.41
706;BME280;21234;48.690;9.016;2022-09-21T03:15:00;96877.16;;;5.16;96.74
706;BME280;21234;48.690;9.016;2022-09-21T03:17:28;96873.84;;;5.14;96.65
706;BME280;21234;48.690;9.016;2022-09-21T03:19:55;96870.72;;;5.10;97.04
706;BME280;21234;48.690;9.016;2022-09-21T03:22:22;96875.63;;;5.00;97.14
706;BME280;21234;48.690;9.016;2022-09-21T03:24:49;96885.53;;;4.86;97.33
706;BME280;21234;48.690;9.016;2022-09-21T03:27:17;96878.69;;;4.84;97.29
706;BME280;21234;48.690;9.016;2022-09-21T03:29:45;96882.88;;;4.99;97.16
706;BME280;21234;48.690;9.016;2022-09-21T03:32:12;96895.69;;;4.91;97.33
706;BME280;21234;48.690;9.016;2022-09-21T03:34:40;96887.78;;;4.89;97.63
706;BME280;21234;48.690;9.016;2022-09-21T03:37:09;96890.28;;;4.91;98.12
706;BME280;21234;48.690;9.016;2022-09-21T03:39:35;96892.75;;;4.79;98.26
706;BME280;21234;48.690;9.016;2022-09-21T03:42:03;96890.69;;;4.81;99.20
706;BME280;21234;48.690;9.016;2022-09-21T03:44:30;96892.75;;;4.79;98.77
706;BME280;21234;48.690;9.016;2022-09-21T03:46:57;96890.16;;;5.05;97.79
706;BME280;21234;48.690;9.016;2022-09-21T03:49:24;96895.47;;;4.92;97.54
706;BME280;21234;48.690;9.016;2022-09-21T03:51:52;96894.22;;;4.88;97.18
706;BME280;21234;48.690;9.016;2022-09-21T03:54:20;96890.44;;;4.76;97.00
706;BME280;21234;48.690;9.016;2022-09-21T03:56:46;96893.97;;;4.77;97.72
706;BME280;21234;48.690;9.016;2022-09-21T03:59:13;96895.03;;;4.89;97.62
706;BME280;21234;48.690;9.016;2022-09-21T04:01:40;96887.59;;;4.84;97.36
706;BME280;21234;48.690;9.016;2022-09-21T04:04:07;96891.47;;;4.75;97.79
706;BME280;21234;48.690;9.016;2022-09-21T04:06:34;96893.38;;;4.88;96.36
706;BME280;21234;48.690;9.016;2022-09-21T04:09:02;96894.22;;;4.88;97.79
706;BME280;21234;48.690;9.016;2022-09-21T04:11:29;96892.34;;;4.89;97.92
706;BME280;21234;48.690;9.016;2022-09-21T04:13:57;96894.44;;;4.93;98.01
706;BME280;21234;48.690;9.016;2022-09-21T04:16:24;96900.66;;;4.87;98.50
706;BME280;21234;48.690;9.016;2022-09-21T04:18:51;96895.28;;;4.87;98.15
706;BME280;21234;48.690;9.016;2022-09-21T04:21:19;96899.41;;;4.90;97.93
706;BME280;21234;48.690;9.016;2022-09-21T04:23:46;96901.50;;;4.94;97.38
706;BME280;21234;48.690;9.016;2022-09-21T04:26:23;96912.88;;;4.83;97.30
706;BME280;21234;48.690;9.016;2022-09-21T04:28:51;96902.69;;;4.79;96.95
706;BME280;21234;48.690;9.016;2022-09-21T04:31:18;96895.44;;;4.79;97.34
706;BME280;21234;48.690;9.016;2022-09-21T04:33:47;96904.25;;;4.66;96.87
706;BME280;21234;48.690;9.016;2022-09-21T04:36:14;96895.94;;;4.61;96.97
706;BME280;21234;48.690;9.016;2022-09-21T04:38:41;96903.56;;;4.58;97.94
706;BME280;21234;48.690;9.016;2022-09-21T04:41:08;96900.47;;;4.54;97.45
706;BME280;21234;48.690;9.016;2022-09-21T04:43:36;96903.56;;;4.58;97.27
706;BME280;21234;48.690;9.016;2022-09-21T04:46:04;96900.69;;;4.59;96.49
706;BME280;21234;48.690;9.016;2022-09-21T04:48:31;96902.91;;;4.49;96.72
706;BME280;21234;48.690;9.016;2022-09-21T04:50:58;96913.03;;;4.47;97.23
706;BME280;21234;48.690;9.016;2022-09-21T04:53:26;96905.22;;;4.52;97.25
706;BME280;21234;48.690;9.016;2022-09-21T04:55:52;96903.81;;;4.63;96.10
706;BME280;21234;48.690;9.016;2022-09-21T04:58:19;96914.31;;;4.51;96.03
706;BME280;21234;48.690;9.016;2022-09-21T05:00:49;96915.75;;;4.47;97.98
706;BME280;21234;48.690;9.016;2022-09-21T05:03:16;96915.81;;;4.32;96.91
706;BME280;21234;48.690;9.016;2022-09-21T05:05:46;96919.50;;;4.53;97.22
706;BME280;21234;48.690;9.016;2022-09-21T05:08:12;96924.41;;;4.43;96.65
706;BME280;21234;48.690;9.016;2022-09-21T05:10:39;96926.84;;;4.37;97.42
706;BME280;21234;48.690;9.016;2022-09-21T05:13:05;96931.06;;;4.47;97.21
706;BME280;21234;48.690;9.016;2022-09-21T05:15:32;96930.81;;;4.42;96.96
706;BME280;21234;48.690;9.016;2022-09-21T05:18:00;96922.69;;;4.35;97.60
706;BME280;21234;48.690;9.016;2022-09-21T05:20:27;96923.44;;;4.29;97.77
706;BME280;21234;48.690;9.016;2022-09-21T05:22:54;96928.06;;;4.35;98.31
706;BME280;21234;48.690;9.016;2022-09-21T05:25:20;96922.28;;;4.38;98.54
706;BME280;21234;48.690;9.016;2022-09-21T05:27:47;96925.22;;;4.43;99.50
706;BME280;21234;48.690;9.016;2022-09-21T05:30:14;96927.16;;;4.49;99.04
706;BME280;21234;48.690;9.016;2022-09-21T05:32:44;96928.94;;;4.42;99.26
706;BME280;21234;48.690;9.016;2022-09-21T05:35:23;96929.19;;;4.47;99.77
706;BME280;21234;48.690;9.016;2022-09-21T05:37:58;96932.78;;;4.54;99.52
706;BME280;21234;48.690;9.016;2022-09-21T05:40:27;96937.59;;;4.65;99.11
706;BME280;21234;48.690;9.016;2022-09-21T05:42:54;96935.94;;;4.64;99.29
706;BME280;21234;48.690;9.016;2022-09-21T05:45:22;96938.34;;;4.81;98.78
706;BME280;21234;48.690;9.016;2022-09-21T05:47:59;96935.16;;;4.70;98.71
706;BME280;21234;48.690;9.016;2022-09-21T05:50:57;96941.75;;;4.68;99.08
706;BME280;21234;48.690;9.016;2022-09-21T05:53:45;96942.19;;;4.71;98.75
706;BME280;21234;48.690;9.016;2022-09-21T05:56:23;96942.06;;;4.80;98.61
706;BME280;21234;48.690;9.016;2022-09-21T05:59:02;96941.06;;;4.87;98.94
706;BME280;21234;48.690;9.016;2022-09-21T06:01:44;96947.13;;;4.96;98.97
706;BME280;21234;48.690;9.016;2022-09-21T06:04:18;96942.03;;;5.14;97.65
706;BME280;21234;48.690;9.016;2022-09-21T06:06:46;96940.22;;;5.28;97.21
706;BME280;21234;48.690;9.016;2022-09-21T06:09:12;96945.16;;;5.72;95.49
706;BME280;21234;48.690;9.016;2022-09-21T06:11:41;96946.66;;;5.88;94.07
706;BME280;21234;48.690;9.016;2022-09-21T06:14:08;96943.56;;;5.91;94.08
706;BME280;21234;48.690;9.016;2022-09-21T06:16:38;96942.59;;;6.51;91.58
706;BME280;21234;48.690;9.016;2022-09-21T06:19:06;96953.09;;;7.19;87.65
706;BME280;21234;48.690;9.016;2022-09-21T06:21:33;96955.47;;;7.53;84.97
706;BME280;21234;48.690;9.016;2022-09-21T06:24:01;96947.72;;;7.05;85.19
706;BME280;21234;48.690;9.016;2022-09-21T06:26:28;96946.75;;;6.47;88.72
706;BME280;21234;48.690;9.016;2022-09-21T06:28:56;96947.38;;;6.43;91.14
706;BME280;21234;48.690;9.016;2022-09-21T06:31:23;96951.72;;;6.57;89.66
706;BME280;21234;48.690;9.016;2022-09-21T06:33:50;96953.06;;;7.32;87.25
706;BME280;21234;48.690;9.016;2022-09-21T06:36:17;96947.38;;;8.54;80.91
706;BME280;21234;48.690;9.016;2022-09-21T06:38:44;96947.75;;;9.62;75.31
706;BME280;21234;48.690;9.016;2022-09-21T06:41:12;96944.59;;;10.78;69.62
706;BME280;21234;48.690;9.016;2022-09-21T06:43:38;96942.53;;;11.67;65.40
706;BME280;21234;48.690;9.016;2022-09-21T06:46:05;96947.00;;;12.42;62.36
706;BME280;21234;48.690;9.016;2022-09-21T06:48:33;96941.53;;;13.42;59.09
706;BME280;21234;48.690;9.016;2022-09-21T06:51:02;96947.72;;;13.76;57.55
706;BME280;21234;48.690;9.016;2022-09-21T06:53:30;96945.44;;;13.90;56.92
706;BME280;21234;48.690;9.016;2022-09-21T06:56:01;96938.41;;;13.94;56.53
706;BME280;21234;48.690;9.016;2022-09-21T06:58:31;96947.59;;;14.10;56.27
706;BME280;21234;48.690;9.016;2022-09-21T07:01:04;96939.03;;;14.82;54.55
706;BME280;21234;48.690;9.016;2022-09-21T07:03:32;96936.31;;;15.19;52.79
706;BME280;21234;48.690;9.016;2022-09-21T07:06:00;96938.06;;;15.77;50.84
706;BME280;21234;48.690;9.016;2022-09-21T07:08:27;96940.44;;;16.21;49.42
706;BME280;21234;48.690;9.016;2022-09-21T07:10:57;96941.38;;;16.67;47.57
706;BME280;21234;48.690;9.016;2022-09-21T07:13:24;96938.34;;;17.35;45.24
706;BME280;21234;48.690;9.016;2022-09-21T07:15:54;96930.94;;;16.79;47.02
706;BME280;21234;48.690;9.016;2022-09-21T07:18:21;96929.31;;;16.84;47.49
706;BME280;21234;48.690;9.016;2022-09-21T07:20:49;96938.34;;;17.25;46.63
706;BME280;21234;48.690;9.016;2022-09-21T07:23:17;96936.09;;;18.32;44.62
706;BME280;21234;48.690;9.016;2022-09-21T07:25:51;96930.59;;;17.72;45.42
706;BME280;21234;48.690;9.016;2022-09-21T07:28:17;96934.38;;;18.51;44.68
706;BME280;21234;48.690;9.016;2022-09-21T07:30:44;96938.22;;;17.91;45.54
706;BME280;21234;48.690;9.016;2022-09-21T07:33:12;96935.00;;;17.68;46.95
706;BME280;21234;48.690;9.016;2022-09-21T07:35:39;96937.09;;;18.02;46.20
706;BME280;21234;48.690;9.016;2022-09-21T07:38:06;96943.53;;;18.31;45.23
706;BME280;21234;48.690;9.016;2022-09-21T07:40:33;96938.88;;;18.81;45.22
706;BME280;21234;48.690;9.016;2022-09-21T07:43:01;96942.53;;;18.66;43.95
706;BME280;21234;48.690;9.016;2022-09-21T07:45:28;96945.50;;;19.43;43.46
706;BME280;21234;48.690;9.016;2022-09-21T07:47:55;96945.81;;;19.70;42.29
706;BME280;21234;48.690;9.016;2022-09-21T07:50:23;96951.72;;;19.25;42.78
706;BME280;21234;48.690;9.016;2022-09-21T07:52:50;96951.56;;;19.45;42.82
706;BME280;21234;48.690;9.016;2022-09-21T07:55:17;96953.09;;;20.09;41.88
706;BME280;21234;48.690;9.016;2022-09-21T07:57:44;96954.06;;;20.18;41.97
706;BME280;21234;48.690;9.016;2022-09-21T08:00:30;96953.66;;;20.54;41.07
706;BME280;21234;48.690;9.016;2022-09-21T08:02:59;96950.13;;;21.04;39.26
706;BME280;21234;48.690;9.016;2022-09-21T08:05:27;96957.97;;;20.97;40.83
706;BME280;21234;48.690;9.016;2022-09-21T08:07:54;96942.34;;;21.25;38.90
706;BME280;21234;48.690;9.016;2022-09-21T08:10:24;96949.22;;;21.28;39.49
706;BME280;21234;48.690;9.016;2022-09-21T08:12:52;96955.13;;;21.21;39.12
706;BME280;21234;48.690;9.016;2022-09-21T08:15:19;96953.06;;;21.45;38.07
706;BME280;21234;48.690;9.016;2022-09-21T08:17:46;96957.56;;;20.71;39.98
706;BME280;21234;48.690;9.016;2022-09-21T08:20:13;96964.97;;;19.57;42.16
706;BME280;21234;48.690;9.016;2022-09-21T08:22:43;96957.63;;;18.79;43.89
706;BME280;21234;48.690;9.016;2022-09-21T08:25:10;96954.09;;;18.14;43.79
706;BME280;21234;48.690;9.016;2022-09-21T08:27:38;96956.97;;;17.78;45.19
706;BME280;21234;48.690;9.016;2022-09-21T08:30:06;96954.78;;;17.55;47.53
706;BME280;21234;48.690;9.016;2022-09-21T08:32:33;96957.56;;;17.50;47.25
706;BME280;21234;48.690;9.016;2022-09-21T08:34:59;96948.47;;;17.55;47.75
706;BME280;21234;48.690;9.016;2022-09-21T08:37:26;96952.31;;;16.62;46.62
706;BME280;21234;48.690;9.016;2022-09-21T08:39:55;96953.75;;;15.87;49.67
706;BME280;21234;48.690;9.016;2022-09-21T08:42:41;96962.66;;;15.30;51.41
706;BME280;21234;48.690;9.016;2022-09-21T08:45:13;96957.88;;;15.10;51.24
706;BME280;21234;48.690;9.016;2022-09-21T08:47:43;96956.41;;;15.35;51.84
706;BME280;21234;48.690;9.016;2022-09-21T08:50:28;96959.25;;;15.50;52.32
706;BME280;21234;48.690;9.016;2022-09-21T08:53:00;96950.00;;;15.61;51.66
706;BME280;21234;48.690;9.016;2022-09-21T08:55:31;96956.34;;;15.67;52.88
706;BME280;21234;48.690;9.016;2022-09-21T08:57:59;96951.00;;;17.10;48.80
706;BME280;21234;48.690;9.016;2022-09-21T09:00:27;96955.06;;;17.79;46.15
706;BME280;21234;48.690;9.016;2022-09-21T09:03:18;96955.94;;;17.13;47.83
706;BME280;21234;48.690;9.016;2022-09-21T09:05:51;96958.13;;;16.76;49.06
706;BME280;21234;48.690;9.016;2022-09-21T09:08:35;96951.09;;;15.60;49.28
706;BME280;21234;48.690;9.016;2022-09-21T09:11:16;96954.41;;;15.62;51.11
706;BME280;21234;48.690;9.016;2022-09-21T09:14:08;96955.00;;;15.69;50.25
706;BME280;21234;48.690;9.016;2022-09-21T09:16:46;96952.28;;;15.74;50.90
706;BME280;21234;48.690;9.016;2022-09-21T09:19:22;96944.97;;;15.43;49.80
706;BME280;21234;48.690;9.016;2022-09-21T09:21:53;96952.94;;;15.50;51.21
706;BME280;21234;48.690;9.016;2022-09-21T09:24:30;96952.81;;;15.71;51.49
706;BME280;21234;48.690;9.016;2022-09-21T09:27:03;96947.28;;;15.19;50.49
706;BME280;21234;48.690;9.016;2022-09-21T09:29:44;96946.63;;;15.07;50.85
706;BME280;21234;48.690;9.016;2022-09-21T09:32:15;96949.38;;;14.75;52.12
706;BME280;21234;48.690;9.016;2022-09-21T09:34:47;96951.84;;;14.76;52.72
706;BME280;21234;48.690;9.016;2022-09-21T09:37:19;96944.38;;;14.99;53.41
706;BME280;21234;48.690;9.016;2022-09-21T09:39:54;96944.88;;;14.96;53.61
706;BME280;21234;48.690;9.016;2022-09-21T09:42:38;96936.66;;;14.96;53.45
706;BME280;21234;48.690;9.016;2022-09-21T09:48:08;96934.03;;;14.74;53.14
706;BME280;21234;48.690;9.016;2022-09-21T09:50:40;96942.06;;;14.54;50.71
706;BME280;21234;48.690;9.016;2022-09-21T09:53:10;96934.75;;;14.64;51.70
706;BME280;21234;48.690;9.016;2022-09-21T09:55:39;96932.22;;;14.53;52.49
706;BME280;21234;48.690;9.016;2022-09-21T09:58:17;96934.38;;;14.51;53.97
706;BME280;21234;48.690;9.016;2022-09-21T10:00:44;96931.47;;;14.62;52.93
706;BME280;21234;48.690;9.016;2022-09-21T10:03:16;96923.56;;;14.39;51.54
706;BME280;21234;48.690;9.016;2022-09-21T10:05:43;96923.31;;;14.67;51.18
706;BME280;21234;48.690;9.016;2022-09-21T10:08:37;96928.25;;;14.70;49.94
706;BME280;21234;48.690;9.016;2022-09-21T10:11:06;96920.50;;;14.62;50.38
706;BME280;21234;48.690;9.016;2022-09-21T10:13:36;96919.94;;;14.87;51.24
706;BME280;21234;48.690;9.016;2022-09-21T10:16:05;96914.25;;;14.99;53.31
706;BME280;21234;48.690;9.016;2022-09-21T10:18:39;96913.09;;;14.90;50.23
706;BME280;21234;48.690;9.016;2022-09-21T10:21:08;96921.59;;;14.88;51.34
706;BME280;21234;48.690;9.016;2022-09-21T10:23:45;96916.69;;;14.95;51.02
706;BME280;21234;48.690;9.016;2022-09-21T10:26:14;96922.28;;;15.10;51.48
706;BME280;21234;48.690;9.016;2022-09-21T10:28:56;96915.47;;;15.13;50.83
706;BME280;21234;48.690;9.016;2022-09-21T10:31:24;96910.69;;;14.93;48.18
706;BME280;21234;48.690;9.016;2022-09-21T10:33:53;96907.38;;;14.96;47.98
706;BME280;21234;48.690;9.016;2022-09-21T10:36:25;96910.53;;;15.15;50.21
706;BME280;21234;48.690;9.016;2022-09-21T10:38:53;96902.53;;;15.51;50.01
706;BME280;21234;48.690;9.016;2022-09-21T10:41:20;96902.97;;;15.32;49.51
706;BME280;21234;48.690;9.016;2022-09-21T10:43:47;96903.53;;;14.92;51.10
706;BME280;21234;48.690;9.016;2022-09-21T10:46:17;96896.91;;;14.83;49.54
706;BME280;21234;48.690;9.016;2022-09-21T10:48:57;96907.13;;;14.93;50.63
706;BME280;21234;48.690;9.016;2022-09-21T10:51:27;96900.00;;;14.65;50.13
706;BME280;21234;48.690;9.016;2022-09-21T10:53:55;96896.06;;;14.83;52.38
706;BME280;21234;48.690;9.016;2022-09-21T10:56:22;96893.69;;;14.91;51.87
706;BME280;21234;48.690;9.016;2022-09-21T10:59:21;96890.34;;;14.52;50.82
706;BME280;21234;48.690;9.016;2022-09-21T11:01:51;96893.97;;;14.36;51.82
706;BME280;21234;48.690;9.016;2022-09-21T11:04:32;96891.81;;;14.38;52.89
706;BME280;21234;48.690;9.016;2022-09-21T11:07:07;96884.44;;;14.65;53.24
706;BME280;21234;48.690;9.016;2022-09-21T11:09:38;96892.16;;;14.73;50.81
706;BME280;21234;48.690;9.016;2022-09-21T11:12:27;96888.25;;;14.64;50.45
706;BME280;21234;48.690;9.016;2022-09-21T11:14:59;96892.31;;;14.57;50.92
706;BME280;21234;48.690;9.016;2022-09-21T11:17:34;96887.34;;;14.54;53.25
706;BME280;21234;48.690;9.016;2022-09-21T11:20:10;96882.72;;;14.32;54.30
706;BME280;21234;48.690;9.016;2022-09-21T11:22:46;96888.91;;;14.18;54.70
706;BME280;21234;48.690;9.016;2022-09-21T11:25:26;96886.56;;;14.04;54.41
706;BME280;21234;48.690;9.016;2022-09-21T11:28:01;96889.13;;;13.89;56.37
706;BME280;21234;48.690;9.016;2022-09-21T11:30:39;96881.16;;;13.61;56.86
706;BME280;21234;48.690;9.016;2022-09-21T11:33:22;96886.72;;;13.71;57.85
706;BME280;21234;48.690;9.016;2022-09-21T11:36:01;96885.13;;;13.97;56.13
706;BME280;21234;48.690;9.016;2022-09-21T11:38:46;96882.41;;;13.97;54.49
706;BME280;21234;48.690;9.016;2022-09-21T11:44:21;96863.81;;;14.53;51.79
706;BME280;21234;48.690;9.016;2022-09-21T11:46:58;96874.75;;;14.53;52.29
706;BME280;21234;48.690;9.016;2022-09-21T11:49:44;96858.97;;;14.60;51.24
706;BME280;21234;48.690;9.016;2022-09-21T11:52:30;96861.50;;;14.71;50.83
706;BME280;21234;48.690;9.016;2022-09-21T11:55:14;96850.94;;;14.85;50.79
706;BME280;21234;48.690;9.016;2022-09-21T11:57:47;96852.75;;;14.74;52.51
706;BME280;21234;48.690;9.016;2022-09-21T12:00:19;96855.25;;;14.44;51.94
706;BME280;21234;48.690;9.016;2022-09-21T12:03:15;96858.25;;;14.42;51.54
706;BME280;21234;48.690;9.016;2022-09-21T12:06:01;96853.53;;;14.38;48.87
706;BME280;21234;48.690;9.016;2022-09-21T12:08:53;96848.22;;;14.53;51.54
706;BME280;21234;48.690;9.016;2022-09-21T12:11:30;96852.19;;;14.72;50.79
706;BME280;21234;48.690;9.016;2022-09-21T12:14:05;96839.38;;;14.78;50.45
706;BME280;21234;48.690;9.016;2022-09-21T12:16:39;96849.63;;;14.93;49.74
706;BME280;21234;48.690;9.016;2022-09-21T12:19:14;96846.81;;;14.83;47.30
706;BME280;21234;48.690;9.016;2022-09-21T12:21:47;96840.66;;;14.65;48.13
706;BME280;21234;48.690;9.016;2022-09-21T12:24:17;96838.69;;;14.56;49.26
706;BME280;21234;48.690;9.016;2022-09-21T12:26:49;96846.06;;;14.92;48.38
706;BME280;21234;48.690;9.016;2022-09-21T12:29:20;96847.84;;;15.19;50.44
706;BME280;21234;48.690;9.016;2022-09-21T12:31:57;96842.44;;;15.34;49.74
706;BME280;21234;48.690;9.016;2022-09-21T12:34:32;96831.28;;;15.45;50.75
706;BME280;21234;48.690;9.016;2022-09-21T12:37:06;96825.53;;;15.47;52.17
706;BME280;21234;48.690;9.016;2022-09-21T12:39:40;96828.31;;;15.05;53.75
706;BME280;21234;48.690;9.016;2022-09-21T12:42:21;96833.75;;;15.00;55.18
706;BME280;21234;48.690;9.016;2022-09-21T12:44:53;96833.66;;;14.79;52.52
706;BME280;21234;48.690;9.016;2022-09-21T12:47:26;96830.69;;;14.49;49.51
706;BME280;21234;48.690;9.016;2022-09-21T12:50:00;96836.41;;;14.48;50.88
706;BME280;21234;48.690;9.016;2022-09-21T12:52:31;96824.94;;;14.88;51.34
706;BME280;21234;48.690;9.016;2022-09-21T12:55:06;96830.47;;;15.50;48.17
706;BME280;21234;48.690;9.016;2022-09-21T12:57:49;96826.50;;;15.83;46.78
706;BME280;21234;48.690;9.016;2022-09-21T13:00:21;96821.34;;;16.12;49.34
706;BME280;21234;48.690;9.016;2022-09-21T13:02:52;96820.81;;;16.25;48.47
706;BME280;21234;48.690;9.016;2022-09-21T13:05:25;96821.94;;;16.24;50.02
706;BME280;21234;48.690;9.016;2022-09-21T13:08:08;96830.66;;;16.06;48.78
706;BME280;21234;48.690;9.016;2022-09-21T13:10:46;96836.50;;;15.52;50.81
706;BME280;21234;48.690;9.016;2022-09-21T13:13:26;96834.38;;;15.07;49.99
706;BME280;21234;48.690;9.016;2022-09-21T13:15:53;96842.41;;;15.24;51.45
706;BME280;21234;48.690;9.016;2022-09-21T13:18:23;96821.03;;;15.83;48.94
706;BME280;21234;48.690;9.016;2022-09-21T13:20:51;96830.34;;;15.92;45.41
706;BME280;21234;48.690;9.016;2022-09-21T13:23:26;96819.19;;;16.55;46.79
706;BME280;21234;48.690;9.016;2022-09-21T13:25:59;96815.63;;;16.64;46.23
706;BME280;21234;48.690;9.016;2022-09-21T13:31:52;96821.78;;;15.63;48.13
706;BME280;21234;48.690;9.016;2022-09-21T13:34:28;96820.84;;;15.42;49.64
706;BME280;21234;48.690;9.016;2022-09-21T13:37:25;96817.56;;;14.88;49.79
706;BME280;21234;48.690;9.016;2022-09-21T13:43:24;96807.44;;;14.20;51.75
706;BME280;21234;48.690;9.016;2022-09-21T13:49:20;96812.09;;;14.51;52.62
706;BME280;21234;48.690;9.016;2022-09-21T13:51:55;96803.25;;;15.23;47.69
706;BME280;21234;48.690;9.016;2022-09-21T13:54:24;96788.94;;;15.78;49.31
706;BME280;21234;48.690;9.016;2022-09-21T13:57:18;96789.00;;;16.19;44.82
706;BME280;21234;48.690;9.016;2022-09-21T13:59:47;96786.00;;;16.71;45.01
706;BME280;21234;48.690;9.016;2022-09-21T14:02:29;96790.84;;;17.15;45.30
706;BME280;21234;48.690;9.016;2022-09-21T14:05:01;96784.63;;;16.54;45.39
706;BME280;21234;48.690;9.016;2022-09-21T14:07:31;96792.25;;;15.91;46.69